Time;durP1;ratioP1;P1;durP2;ratioP2;P2;SDS_P1;SDS_P2;PMS_P1;PMS_P2;Temp;Humidity;BMP_temperature;BMP_pressure;BME280_temperature;BME280_humidity;BME280_pressure;Samples;Min_cycle;Max_cycle;Signal;HPM_P1;HPM_P2
2022/05/15 00:01:53;;;;;;;2.85;2.30;;;;;;;12.72;100.00;98923.47;5001902;28;20048;-61
2022/05/15 00:04:18;;;;;;;5.63;2.40;;;;;;;12.69;100.00;98930.38;4999748;28;20037;-60
2022/05/15 00:06:44;;;;;;;2.50;2.30;;;;;;;12.62;100.00;98921.97;5004756;28;20034;-60
2022/05/15 00:09:10;;;;;;;3.85;2.38;;;;;;;12.55;100.00;98914.44;5002723;28;20054;-60
2022/05/15 00:11:35;;;;;;;3.67;2.20;;;;;;;12.48;100.00;98924.00;5000367;28;20040;-60
2022/05/15 00:14:02;;;;;;;3.25;2.20;;;;;;;12.43;100.00;98912.13;4985786;28;20406;-60
2022/05/15 00:16:30;;;;;;;2.65;1.92;;;;;;;12.41;100.00;98921.59;5004307;28;20050;-61
2022/05/15 00:18:56;;;;;;;2.40;2.20;;;;;;;12.42;100.00;98918.16;5004356;28;20239;-62
2022/05/15 00:21:21;;;;;;;5.90;2.38;;;;;;;12.40;100.00;98918.16;4999782;28;20551;-61
2022/05/15 00:23:47;;;;;;;2.50;2.30;;;;;;;12.50;100.00;98924.81;5000967;28;20038;-61
2022/05/15 00:26:13;;;;;;;2.65;2.25;;;;;;;12.43;100.00;98923.28;5001647;28;20064;-61
2022/05/15 00:28:38;;;;;;;3.22;2.92;;;;;;;12.51;100.00;98925.66;5001361;28;20033;-60
2022/05/15 00:31:04;;;;;;;2.63;2.30;;;;;;;12.47;100.00;98929.19;5000165;28;20030;-62
2022/05/15 00:33:30;;;;;;;2.45;2.25;;;;;;;12.39;100.00;98931.09;5002160;28;20604;-61
2022/05/15 00:35:55;;;;;;;2.35;2.17;;;;;;;12.32;100.00;98927.78;5003022;28;20053;-61
2022/05/15 00:38:22;;;;;;;2.95;2.22;;;;;;;12.28;100.00;98929.56;5001433;28;20125;-61
2022/05/15 00:40:49;;;;;;;7.60;2.58;;;;;;;12.24;100.00;98933.09;4997607;28;20041;-61
2022/05/15 00:43:43;;;;;;;2.83;2.30;;;;;;;12.18;100.00;98927.22;5004432;28;20034;-61
2022/05/15 00:46:31;;;;;;;3.28;2.97;;;;;;;12.22;100.00;98928.88;5003437;28;20121;-60
2022/05/15 00:48:59;;;;;;;2.20;1.80;;;;;;;12.17;100.00;98930.69;5000042;28;20369;-61
2022/05/15 00:51:48;;;;;;;4.68;2.28;;;;;;;12.14;100.00;98923.88;5001636;28;20026;-60
2022/05/15 00:54:20;;;;;;;2.13;1.92;;;;;;;12.06;100.00;98933.47;5003036;28;20033;-60
2022/05/15 00:56:51;;;;;;;2.05;1.85;;;;;;;12.08;100.00;98918.00;5001721;28;20030;-60
2022/05/15 00:59:20;;;;;;;3.88;2.80;;;;;;;12.30;100.00;98920.13;4999844;28;20666;-60
2022/05/15 01:01:46;;;;;;;3.25;2.35;;;;;;;12.39;100.00;98921.63;5000901;28;20036;-61
2022/05/15 01:04:12;;;;;;;2.60;1.60;;;;;;;12.38;100.00;98914.81;5000976;28;20033;-60
2022/05/15 01:06:38;;;;;;;2.05;1.92;;;;;;;12.47;100.00;98918.91;5000885;28;20095;-60
2022/05/15 01:09:05;;;;;;;2.63;2.42;;;;;;;12.50;100.00;98921.41;4998522;28;20469;-61
2022/05/15 01:11:32;;;;;;;2.65;1.92;;;;;;;12.67;100.00;98916.72;5000418;28;20509;-60
2022/05/15 01:13:58;;;;;;;3.67;2.22;;;;;;;12.73;100.00;98927.72;5001935;28;20030;-61
2022/05/15 01:16:25;;;;;;;2.92;2.05;;;;;;;12.88;100.00;98921.38;5001521;28;20057;-60
2022/05/15 01:18:56;;;;;;;2.85;1.90;;;;;;;12.80;100.00;98916.41;5000698;28;20044;-60
2022/05/15 01:21:36;;;;;;;4.20;3.03;;;;;;;12.68;100.00;98929.56;5002868;28;20101;-60
2022/05/15 01:24:04;;;;;;;2.25;2.05;;;;;;;12.54;100.00;98931.59;4999112;28;20600;-60
2022/05/15 01:26:30;;;;;;;2.85;2.17;;;;;;;12.40;100.00;98928.47;4999288;28;20030;-60
2022/05/15 01:28:56;;;;;;;4.93;2.47;;;;;;;12.27;100.00;98927.88;4985722;28;20046;-61
2022/05/15 01:31:23;;;;;;;3.35;2.22;;;;;;;12.39;100.00;98928.50;5001904;28;20071;-60
2022/05/15 01:33:51;;;;;;;2.65;1.95;;;;;;;12.36;100.00;98934.53;5001040;28;20045;-60
2022/05/15 01:36:19;;;;;;;4.53;2.00;;;;;;;12.43;100.00;98935.28;4999064;28;20049;-61
2022/05/15 01:38:45;;;;;;;2.80;1.73;;;;;;;12.42;100.00;98931.84;5000411;28;20448;-61
2022/05/15 01:41:12;;;;;;;2.20;2.00;;;;;;;12.54;100.00;98928.16;5001213;28;20029;-60
2022/05/15 01:43:43;;;;;;;5.25;2.22;;;;;;;12.67;100.00;98930.44;4996881;28;20065;-61
2022/05/15 01:46:09;;;;;;;2.17;1.95;;;;;;;12.69;100.00;98931.22;4997168;28;20802;-61
2022/05/15 01:48:35;;;;;;;2.90;1.90;;;;;;;12.67;100.00;98935.59;4999764;28;20044;-60
2022/05/15 01:51:01;;;;;;;4.55;2.00;;;;;;;12.73;100.00;98932.84;5001231;28;20026;-61
2022/05/15 01:53:27;;;;;;;3.88;2.30;;;;;;;12.96;100.00;98924.59;4998258;28;20044;-61
2022/05/15 01:55:52;;;;;;;3.25;1.85;;;;;;;13.01;100.00;98924.50;4996606;28;20029;-61
2022/05/15 01:58:18;;;;;;;2.85;1.70;;;;;;;12.91;100.00;98918.72;4997970;28;20476;-60
2022/05/15 02:00:44;;;;;;;3.38;2.20;;;;;;;12.89;100.00;98917.06;4999392;28;20113;-61
2022/05/15 02:03:10;;;;;;;2.08;1.98;;;;;;;12.92;100.00;98915.28;4998646;28;20076;-61
2022/05/15 02:05:35;;;;;;;5.15;2.63;;;;;;;13.00;100.00;98922.81;4999772;28;20425;-61
2022/05/15 02:08:01;;;;;;;5.05;2.08;;;;;;;12.88;100.00;98923.09;5000461;28;20116;-61
2022/05/15 02:10:27;;;;;;;2.63;2.10;;;;;;;12.69;100.00;98927.81;5001978;28;20439;-61
2022/05/15 02:12:52;;;;;;;3.97;2.88;;;;;;;12.54;100.00;98929.00;4997994;28;20575;-61
2022/05/15 02:15:18;;;;;;;4.45;2.65;;;;;;;12.55;100.00;98929.88;4997154;28;20109;-61
2022/05/15 02:17:43;;;;;;;2.65;2.45;;;;;;;12.54;100.00;98925.59;4999839;28;20572;-60
2022/05/15 02:20:11;;;;;;;2.80;2.13;;;;;;;12.45;100.00;98933.50;5001365;28;20064;-60
2022/05/15 02:22:38;;;;;;;4.15;1.95;;;;;;;12.34;100.00;98928.59;4997593;28;20053;-60
2022/05/15 02:25:06;;;;;;;2.05;1.90;;;;;;;12.20;100.00;98935.75;5000958;28;20116;-60
2022/05/15 02:27:32;;;;;;;3.47;2.53;;;;;;;12.20;100.00;98934.03;5003185;28;20429;-60
2022/05/15 02:29:58;;;;;;;7.15;2.40;;;;;;;12.14;100.00;98930.72;5002121;28;20029;-60
2022/05/15 02:32:23;;;;;;;2.45;2.20;;;;;;;12.14;100.00;98930.72;4997218;28;20057;-60
2022/05/15 02:34:49;;;;;;;3.22;2.20;;;;;;;12.09;100.00;98935.13;4997395;28;20041;-60
2022/05/15 02:37:15;;;;;;;2.55;2.05;;;;;;;11.96;100.00;98931.97;4998513;28;20030;-59
2022/05/15 02:39:40;;;;;;;2.40;2.20;;;;;;;11.90;100.00;98937.22;4999474;28;20482;-59
2022/05/15 02:42:06;;;;;;;2.00;1.90;;;;;;;11.76;100.00;98928.91;4997458;28;20029;-60
2022/05/15 02:44:31;;;;;;;1.83;1.73;;;;;;;11.76;100.00;98929.75;4999138;28;20065;-60
2022/05/15 02:46:57;;;;;;;2.67;2.10;;;;;;;11.78;100.00;98937.44;5002446;28;20022;-60
2022/05/15 02:52:07;;;;;;;3.10;1.80;;;;;;;11.88;100.00;98937.22;4998186;28;20069;-58
2022/05/15 02:54:33;;;;;;;2.28;2.08;;;;;;;11.82;100.00;98934.78;4999407;28;20266;-60
2022/05/15 02:56:58;;;;;;;2.47;1.95;;;;;;;11.81;100.00;98935.66;5001786;28;20030;-60
2022/05/15 02:59:24;;;;;;;2.92;2.10;;;;;;;11.86;100.00;98935.56;5000700;28;20041;-61
2022/05/15 03:01:50;;;;;;;2.63;2.42;;;;;;;11.81;100.00;98932.25;5001573;28;20029;-61
2022/05/15 03:04:15;;;;;;;2.40;2.20;;;;;;;11.84;100.00;98945.03;5003213;28;20539;-60
2022/05/15 03:06:41;;;;;;;2.63;2.30;;;;;;;11.85;100.00;98945.00;5004894;28;20502;-61
2022/05/15 03:09:06;;;;;;;4.43;3.22;;;;;;;11.77;100.00;98938.31;5001631;28;20129;-60
2022/05/15 03:11:32;;;;;;;2.60;2.40;;;;;;;11.72;100.00;98940.13;5000945;28;20488;-60
2022/05/15 03:13:57;;;;;;;5.72;2.42;;;;;;;11.78;100.00;98933.16;5003958;28;20491;-58
2022/05/15 03:16:22;;;;;;;5.03;2.28;;;;;;;11.76;100.00;98940.03;5004432;28;20054;-60
2022/05/15 03:18:50;;;;;;;2.90;2.20;;;;;;;11.77;100.00;98946.03;5001253;28;20056;-60
2022/05/15 03:21:29;;;;;;;5.28;2.20;;;;;;;11.75;100.00;98950.34;5000486;28;20033;-61
2022/05/15 03:24:07;;;;;;;3.15;2.40;;;;;;;11.73;100.00;98955.50;5001236;28;20038;-60
2022/05/15 03:26:36;;;;;;;2.28;2.00;;;;;;;11.66;100.00;98953.91;5002829;28;20041;-60
2022/05/15 03:29:03;;;;;;;4.00;2.13;;;;;;;11.65;100.00;98954.78;5002569;28;20030;-60
2022/05/15 03:31:28;;;;;;;4.13;2.20;;;;;;;11.58;100.00;98953.19;5001350;28;20037;-60
2022/05/15 03:33:54;;;;;;;3.92;2.47;;;;;;;11.53;100.00;98961.84;5006554;28;20038;-61
2022/05/15 03:36:19;;;;;;;3.15;2.00;;;;;;;11.52;100.00;98960.16;5002557;28;20479;-60
2022/05/15 03:38:46;;;;;;;2.05;1.90;;;;;;;11.42;100.00;98968.00;5000809;28;20457;-60
2022/05/15 03:41:13;;;;;;;5.20;2.42;;;;;;;11.44;100.00;98966.28;5000411;28;20038;-61
2022/05/15 03:43:39;;;;;;;2.92;2.20;;;;;;;11.41;100.00;98957.78;5005053;28;20488;-61
2022/05/15 03:46:06;;;;;;;2.28;2.08;;;;;;;11.56;100.00;98966.94;5001303;28;20034;-61
2022/05/15 03:48:32;;;;;;;2.95;2.03;;;;;;;11.66;100.00;98958.19;5001452;28;20450;-59
2022/05/15 03:50:59;;;;;;;3.58;2.70;;;;;;;11.81;100.00;98965.63;5003675;28;20036;-60
2022/05/15 03:53:25;;;;;;;2.53;2.05;;;;;;;11.89;100.00;98967.19;5000854;28;20033;-60
2022/05/15 03:55:55;;;;;;;3.63;2.25;;;;;;;12.01;100.00;98968.66;5000288;28;20038;-60
2022/05/15 03:58:25;;;;;;;3.33;2.50;;;;;;;12.14;100.00;98970.13;5001450;28;20025;-60
2022/05/15 04:00:51;;;;;;;2.70;2.50;;;;;;;12.23;100.00;98963.94;5001087;28;20384;-61
2022/05/15 04:03:17;;;;;;;3.50;3.10;;;;;;;12.35;100.00;98972.25;5005291;28;20034;-60
2022/05/15 04:05:42;;;;;;;3.63;2.35;;;;;;;12.52;100.00;98959.03;5000741;28;20469;-61
2022/05/15 04:08:08;;;;;;;3.22;2.22;;;;;;;12.62;100.00;98972.56;4999153;28;20046;-60
2022/05/15 04:10:33;;;;;;;2.30;2.08;;;;;;;12.74;100.00;98969.72;5003935;28;20046;-60
2022/05/15 04:12:59;;;;;;;3.85;2.42;;;;;;;12.81;100.00;98972.13;5002607;28;20088;-61
2022/05/15 04:15:24;;;;;;;2.38;2.10;;;;;;;13.00;100.00;98977.69;5000349;28;20026;-61
2022/05/15 04:17:51;;;;;;;3.78;2.58;;;;;;;13.20;100.00;98978.09;5000566;28;20052;-61
2022/05/15 04:20:20;;;;;;;3.67;2.28;;;;;;;13.25;100.00;98972.84;5000062;28;20034;-60
2022/05/15 04:22:45;;;;;;;3.90;2.58;;;;;;;13.19;100.00;98975.59;5000216;28;20034;-60
2022/05/15 04:25:12;;;;;;;4.57;2.78;;;;;;;13.25;100.00;98975.41;5002142;28;20109;-60
2022/05/15 04:27:38;;;;;;;3.33;3.03;;;;;;;13.36;100.00;98977.75;5002621;28;20034;-61
2022/05/15 04:30:05;;;;;;;4.07;3.33;;;;;;;13.47;100.00;98980.88;5002542;28;20041;-61
2022/05/15 04:32:30;;;;;;;2.38;2.25;;;;;;;13.55;100.00;98984.97;4999930;28;20065;-60
2022/05/15 04:34:56;;;;;;;4.60;2.65;;;;;;;13.64;100.00;98984.75;5000174;28;20458;-60
2022/05/15 04:37:21;;;;;;;3.78;3.03;;;;;;;13.74;100.00;98985.34;5000146;28;20199;-62
2022/05/15 04:39:47;;;;;;;3.58;3.25;;;;;;;13.86;100.00;98976.44;5001367;28;20038;-61
2022/05/15 04:42:12;;;;;;;2.85;2.63;;;;;;;13.97;100.00;98979.56;5000077;28;20547;-59
2022/05/15 04:44:37;;;;;;;3.25;2.90;;;;;;;14.01;100.00;98988.91;5000652;28;20033;-61
2022/05/15 04:47:03;;;;;;;3.20;2.47;;;;;;;14.01;100.00;98981.19;4999322;28;20022;-60
2022/05/15 04:49:29;;;;;;;2.92;2.63;;;;;;;14.16;100.00;98991.94;5001522;28;20049;-61
2022/05/15 04:51:54;;;;;;;2.75;2.55;;;;;;;14.28;100.00;98997.63;5000898;28;20026;-61
2022/05/15 04:54:19;;;;;;;3.03;2.83;;;;;;;14.46;100.00;98992.84;5000148;28;20582;-61
2022/05/15 04:56:45;;;;;;;2.85;2.33;;;;;;;14.60;100.00;98995.84;5002883;28;20109;-61
2022/05/15 04:59:10;;;;;;;4.25;2.60;;;;;;;14.80;100.00;98994.44;4998930;28;20116;-60
2022/05/15 05:01:36;;;;;;;3.28;2.50;;;;;;;14.93;100.00;98996.59;5000147;28;20041;-58
2022/05/15 05:04:02;;;;;;;4.18;3.05;;;;;;;15.07;100.00;98997.00;4996901;28;20030;-61
2022/05/15 05:06:28;;;;;;;5.57;3.72;;;;;;;15.19;100.00;99011.25;5002383;28;20263;-60
2022/05/15 05:08:54;;;;;;;3.90;2.95;;;;;;;15.27;100.00;98998.13;5002707;28;20045;-61
2022/05/15 05:11:20;;;;;;;2.58;2.38;;;;;;;15.37;100.00;98997.75;4998252;28;20152;-61
2022/05/15 05:13:46;;;;;;;2.80;2.55;;;;;;;15.49;100.00;99002.53;4999324;28;20040;-59
2022/05/15 05:16:12;;;;;;;3.25;2.85;;;;;;;15.64;100.00;99000.38;4999003;28;20050;-59
2022/05/15 05:18:37;;;;;;;2.70;2.40;;;;;;;15.62;100.00;99005.56;5001854;28;20041;-59
2022/05/15 05:21:03;;;;;;;3.95;2.55;;;;;;;15.79;98.43;98994.66;4997490;28;20079;-59
2022/05/15 05:23:29;;;;;;;4.07;2.33;;;;;;;15.91;100.00;99002.03;4999045;28;20520;-60
2022/05/15 05:25:55;;;;;;;3.00;2.70;;;;;;;16.09;98.41;99005.69;5001053;28;20034;-60
2022/05/15 05:28:21;;;;;;;2.58;2.38;;;;;;;16.16;96.20;99002.84;5001989;28;20030;-59
2022/05/15 05:30:46;;;;;;;4.97;2.17;;;;;;;16.37;94.31;99006.41;4999260;28;20064;-60
2022/05/15 05:33:12;;;;;;;3.53;2.47;;;;;;;16.48;93.43;99006.00;4998787;28;20033;-60
2022/05/15 05:35:37;;;;;;;2.53;2.30;;;;;;;16.59;92.48;99009.91;4999159;28;20468;-60
2022/05/15 05:38:04;;;;;;;2.67;2.35;;;;;;;16.73;89.07;99012.00;5000185;28;20271;-60
2022/05/15 05:40:30;;;;;;;3.72;2.45;;;;;;;16.73;88.73;99006.81;4997564;28;20030;-60
2022/05/15 05:42:55;;;;;;;2.80;2.33;;;;;;;16.95;87.17;99012.03;4997542;28;20064;-60
2022/05/15 05:45:22;;;;;;;3.08;2.42;;;;;;;17.00;86.17;99010.94;4997894;28;20033;-60
2022/05/15 05:47:49;;;;;;;2.47;2.25;;;;;;;17.20;86.97;99010.16;4999311;28;20026;-60
2022/05/15 05:50:17;;;;;;;7.05;2.65;;;;;;;17.28;85.76;99006.34;4998579;28;20034;-60
2022/05/15 05:52:43;;;;;;;2.17;1.83;;;;;;;17.50;84.57;99016.72;5002269;28;20029;-60
2022/05/15 05:55:11;;;;;;;2.53;2.40;;;;;;;17.69;83.88;99022.03;4998897;28;20030;-59
2022/05/15 05:57:37;;;;;;;2.55;2.38;;;;;;;17.72;84.35;99021.88;4999192;28;20038;-60
2022/05/15 06:00:09;;;;;;;3.25;2.05;;;;;;;17.73;83.03;99029.63;5000642;28;20033;-59
2022/05/15 06:02:34;;;;;;;4.75;2.40;;;;;;;17.68;80.72;99026.38;4999889;28;20061;-60
2022/05/15 06:05:00;;;;;;;2.72;2.53;;;;;;;17.74;79.30;99028.69;4998319;28;20527;-59
2022/05/15 06:07:27;;;;;;;5.68;2.90;;;;;;;17.76;79.43;99026.03;4997388;28;20444;-60
2022/05/15 06:09:53;;;;;;;3.10;2.40;;;;;;;17.98;80.79;99025.97;4999383;28;20508;-60
2022/05/15 06:12:21;;;;;;;2.65;2.35;;;;;;;18.08;78.48;99020.31;5002797;28;20030;-60
2022/05/15 06:14:47;;;;;;;2.60;2.40;;;;;;;18.26;75.89;99026.47;4996986;28;20041;-60
2022/05/15 06:17:12;;;;;;;3.42;2.60;;;;;;;18.34;75.09;99034.75;4996763;28;20438;-60
2022/05/15 06:19:38;;;;;;;3.60;2.58;;;;;;;18.43;75.02;99025.72;4997632;28;20030;-59
2022/05/15 06:22:04;;;;;;;2.75;2.53;;;;;;;18.52;73.60;99033.13;5001240;28;20038;-59
2022/05/15 06:24:30;;;;;;;5.05;3.10;;;;;;;18.59;73.53;99026.75;5002175;28;20909;-58
2022/05/15 06:26:59;;;;;;;3.20;3.00;;;;;;;18.68;71.77;99028.94;4997082;28;20034;-60
2022/05/15 06:29:27;;;;;;;3.05;2.75;;;;;;;18.71;69.92;99023.63;4999271;28;20123;-60
2022/05/15 06:31:53;;;;;;;4.28;2.50;;;;;;;18.83;70.45;99030.84;5004005;28;20046;-60
2022/05/15 06:34:18;;;;;;;3.08;2.65;;;;;;;18.85;70.98;99026.41;5006170;28;20499;-59
2022/05/15 06:36:43;;;;;;;3.28;2.72;;;;;;;18.92;70.90;99033.03;4984824;28;20034;-59
2022/05/15 06:39:09;;;;;;;3.28;2.80;;;;;;;19.07;70.92;99034.91;5002220;28;20040;-59
2022/05/15 06:41:35;;;;;;;3.60;2.80;;;;;;;19.13;68.11;99034.63;5004638;28;20427;-59
2022/05/15 06:44:00;;;;;;;2.78;2.53;;;;;;;19.17;66.54;99033.56;5002115;28;20587;-59
2022/05/15 06:46:27;;;;;;;3.00;2.67;;;;;;;19.26;68.31;99034.91;5001021;28;20523;-59
2022/05/15 06:48:53;;;;;;;3.05;2.85;;;;;;;19.25;66.78;99033.19;5003438;28;20125;-57
2022/05/15 06:51:18;;;;;;;4.20;2.90;;;;;;;19.34;65.71;99037.97;5005079;28;20052;-56
2022/05/15 06:53:45;;;;;;;4.30;3.65;;;;;;;19.38;66.64;99029.09;5002084;28;20038;-56
2022/05/15 06:58:55;;;;;;;6.43;2.72;;;;;;;19.73;62.27;99035.19;5000660;28;20088;-63
2022/05/15 07:01:21;;;;;;;3.95;3.53;;;;;;;19.84;63.65;99032.06;5001479;28;20049;-62
2022/05/15 07:03:47;;;;;;;4.72;4.22;;;;;;;19.85;61.72;99034.59;5000103;28;20344;-63
2022/05/15 07:06:12;;;;;;;3.78;2.85;;;;;;;19.86;60.67;99028.47;5001698;28;20038;-63
2022/05/15 07:08:38;;;;;;;3.20;3.00;;;;;;;19.81;62.18;99032.22;5000708;28;20042;-62
2022/05/15 07:11:04;;;;;;;2.72;2.63;;;;;;;19.98;64.01;99027.03;5001678;28;20030;-61
2022/05/15 07:13:30;;;;;;;2.97;2.78;;;;;;;20.14;64.85;99027.06;5001245;28;20113;-63
2022/05/15 07:15:55;;;;;;;3.17;2.97;;;;;;;20.29;63.87;99028.88;5000107;28;20049;-61
2022/05/15 07:18:23;;;;;;;4.47;3.35;;;;;;;20.29;63.27;99027.13;5002268;28;20037;-63
2022/05/15 07:20:50;;;;;;;3.55;3.20;;;;;;;20.25;62.63;99028.19;5001106;28;20424;-64
2022/05/15 07:23:16;;;;;;;3.00;2.80;;;;;;;20.26;62.45;99023.81;5001607;28;20027;-63
2022/05/15 07:25:42;;;;;;;3.20;2.90;;;;;;;20.47;61.73;99026.19;5003359;28;20613;-63
2022/05/15 07:28:07;;;;;;;3.80;3.50;;;;;;;20.46;60.23;99027.09;5006029;28;20116;-63
2022/05/15 07:30:33;;;;;;;3.42;3.13;;;;;;;20.34;59.46;99037.31;5004132;28;20101;-64
2022/05/15 07:32:58;;;;;;;5.60;3.40;;;;;;;20.60;58.51;99026.38;5000197;28;20037;-63
2022/05/15 07:35:24;;;;;;;3.63;3.33;;;;;;;20.66;57.46;99022.63;5003164;28;20486;-62
2022/05/15 07:37:49;;;;;;;3.50;3.28;;;;;;;20.76;56.56;99027.22;5006243;28;20116;-62
2022/05/15 07:40:14;;;;;;;5.43;3.22;;;;;;;21.00;57.43;99022.47;5002114;28;20033;-62
2022/05/15 07:42:41;;;;;;;5.43;3.10;;;;;;;20.99;57.93;99018.16;4998901;28;20040;-61
2022/05/15 07:45:08;;;;;;;5.43;3.60;;;;;;;21.11;56.75;99024.47;5002046;28;20080;-63
2022/05/15 07:47:33;;;;;;;2.97;2.80;;;;;;;21.25;56.55;99024.59;5004469;28;20566;-63
2022/05/15 07:49:58;;;;;;;3.20;2.90;;;;;;;21.39;56.21;99017.66;4999615;28;20029;-63
2022/05/15 07:52:24;;;;;;;3.92;3.45;;;;;;;21.32;55.73;99023.31;4998586;28;20075;-63
2022/05/15 07:54:50;;;;;;;4.18;3.35;;;;;;;21.19;55.39;99036.19;5002914;28;20030;-62
2022/05/15 07:57:16;;;;;;;4.10;3.70;;;;;;;20.96;54.58;99029.59;5005368;28;20049;-63
2022/05/15 07:59:41;;;;;;;3.28;3.00;;;;;;;21.00;55.18;99030.28;5001990;28;20833;-62
2022/05/15 08:02:07;;;;;;;4.57;3.30;;;;;;;21.12;54.43;99033.97;4998395;28;20532;-62
2022/05/15 08:10:04;;;;;;;5.53;4.07;;;;;;;21.38;55.80;99029.03;5000910;28;20045;-63
2022/05/15 08:12:30;;;;;;;6.55;3.50;;;;;;;21.15;54.18;99041.66;4999808;28;20512;-62
2022/05/15 08:14:55;;;;;;;3.60;3.30;;;;;;;21.28;54.38;99029.63;5002670;28;20030;-65
2022/05/15 08:17:20;;;;;;;3.25;3.00;;;;;;;21.57;55.86;99034.03;4998874;28;20085;-64
2022/05/15 08:25:16;;;;;;;3.70;3.40;;;;;;;21.41;52.63;99038.44;5004243;28;20044;-62
2022/05/15 08:27:42;;;;;;;4.25;3.20;;;;;;;21.40;51.86;99036.75;5001566;28;20037;-63
2022/05/15 08:30:08;;;;;;;3.40;3.20;;;;;;;21.49;52.41;99030.16;5000612;28;20435;-63
2022/05/15 08:32:34;;;;;;;3.13;2.83;;;;;;;21.49;50.68;99035.38;5003552;28;20033;-63
2022/05/15 08:35:00;;;;;;;3.92;3.60;;;;;;;21.60;50.12;99028.63;5003443;28;20482;-62
2022/05/15 08:37:25;;;;;;;5.07;3.00;;;;;;;21.72;50.96;99030.56;4998649;28;20106;-62
2022/05/15 08:39:51;;;;;;;2.72;2.55;;;;;;;21.80;50.42;99030.09;4999382;28;20069;-63
2022/05/15 08:42:45;;;;;;;4.20;3.47;;;;;;;21.67;50.12;99029.13;4989572;28;20382;-63
2022/05/15 08:45:15;;;;;;;5.25;2.60;;;;;;;21.80;50.97;99035.31;5004484;28;20117;-60
2022/05/15 08:47:46;;;;;;;5.03;3.35;;;;;;;21.94;51.25;99021.50;5001159;28;20120;-62
2022/05/15 08:50:17;;;;;;;4.50;3.28;;;;;;;21.93;49.11;99027.66;5002683;28;20471;-63
2022/05/15 08:52:47;;;;;;;4.13;2.88;;;;;;;22.20;48.48;99033.84;5004192;28;20033;-63
2022/05/15 08:55:21;;;;;;;6.00;3.50;;;;;;;21.98;50.52;99043.91;5001738;28;20101;-62
2022/05/15 08:58:06;;;;;;;3.73;3.43;;;;;;;21.95;52.10;99034.44;5001713;28;20042;-63
2022/05/15 09:00:40;;;;;;;3.45;3.15;;;;;;;21.94;52.08;99037.16;5002224;28;20044;-63
2022/05/15 09:03:25;;;;;;;5.32;3.45;;;;;;;22.02;52.00;99033.19;5000993;28;20034;-64
2022/05/15 09:05:59;;;;;;;4.47;4.07;;;;;;;21.94;51.93;99029.34;4997875;28;20033;-63
2022/05/15 09:08:43;;;;;;;6.10;3.50;;;;;;;22.08;51.94;99035.41;4999973;28;20477;-64
2022/05/15 09:11:09;;;;;;;3.47;3.13;;;;;;;22.17;52.48;99034.03;5000240;28;20276;-62
2022/05/15 09:13:46;;;;;;;4.90;3.50;;;;;;;22.21;51.31;99032.91;4982847;28;20038;-63
2022/05/15 09:16:31;;;;;;;6.30;3.72;;;;;;;22.30;52.80;99029.75;4997987;28;20054;-63
2022/05/15 09:19:02;;;;;;;3.75;3.40;;;;;;;22.56;52.51;99033.38;5000745;28;20132;-64
2022/05/15 09:21:28;;;;;;;4.15;3.13;;;;;;;22.32;50.51;99028.72;4997656;28;20183;-63
2022/05/15 09:23:59;;;;;;;4.38;3.95;;;;;;;22.19;50.98;99030.38;4984861;28;20033;-63
2022/05/15 09:26:28;;;;;;;6.60;3.13;;;;;;;22.54;50.94;99030.00;4999831;28;20030;-63
2022/05/15 09:29:01;;;;;;;6.65;3.60;;;;;;;22.51;48.21;99033.66;4999340;28;20042;-65
2022/05/15 09:31:42;;;;;;;4.18;3.78;;;;;;;22.21;49.09;99028.53;5002298;28;20045;-63
2022/05/15 09:34:20;;;;;;;5.55;3.10;;;;;;;22.54;48.33;99023.03;4999990;28;20087;-64
2022/05/15 09:36:48;;;;;;;4.13;3.20;;;;;;;22.43;47.19;99033.31;4998972;28;20651;-64
2022/05/15 09:39:18;;;;;;;5.10;3.22;;;;;;;22.71;47.36;99032.47;5003213;28;20540;-62
2022/05/15 09:44:41;;;;;;;6.90;3.65;;;;;;;23.01;46.86;99032.31;4998786;28;20618;-61
2022/05/15 09:47:09;;;;;;;7.97;4.07;;;;;;;22.90;46.33;99025.19;4998976;28;20038;-63
2022/05/15 09:49:35;;;;;;;6.80;3.28;;;;;;;23.08;46.95;99021.41;5001835;28;20040;-62
2022/05/15 09:52:26;;;;;;;5.32;4.25;;;;;;;23.01;46.13;99027.09;4999549;28;20156;-52
2022/05/15 09:54:51;;;;;;;4.47;3.30;;;;;;;23.03;46.19;99025.25;4997783;28;20041;-57
2022/05/15 09:57:20;;;;;;;5.07;3.75;;;;;;;23.00;45.87;99021.03;5000548;28;20461;-61
2022/05/15 09:59:59;;;;;;;6.43;3.55;;;;;;;23.20;45.77;99020.63;4996487;28;20477;-62
2022/05/15 10:02:46;;;;;;;4.43;3.22;;;;;;;23.44;45.39;99015.59;4996506;28;20097;-61
2022/05/15 10:05:16;;;;;;;6.10;3.15;;;;;;;23.27;45.25;99009.75;4998801;28;20038;-61
2022/05/15 10:07:49;;;;;;;3.58;2.65;;;;;;;23.37;44.31;99009.06;5002647;28;20075;-63
2022/05/15 10:10:15;;;;;;;7.28;4.07;;;;;;;23.57;44.68;99016.47;5000475;28;20587;-62
2022/05/15 10:12:43;;;;;;;4.68;3.80;;;;;;;23.59;43.88;99014.56;4999232;28;20033;-62
2022/05/15 10:15:09;;;;;;;6.07;3.88;;;;;;;23.43;44.06;99013.91;4999245;28;20241;-62
2022/05/15 10:17:42;;;;;;;7.18;2.83;;;;;;;23.52;43.21;99015.09;5000583;28;20041;-61
2022/05/15 10:20:14;;;;;;;3.78;2.75;;;;;;;23.51;43.03;99018.63;4999160;28;20030;-62
2022/05/15 10:23:06;;;;;;;3.17;2.83;;;;;;;23.52;42.49;99022.94;4998202;28;20045;-62
2022/05/15 10:25:32;;;;;;;3.95;3.10;;;;;;;23.71;42.54;99010.34;5001745;28;20041;-63
2022/05/15 10:28:10;;;;;;;3.72;2.63;;;;;;;23.95;42.84;99000.81;5001573;28;20037;-62
2022/05/15 10:30:57;;;;;;;7.18;3.28;;;;;;;23.95;42.81;99005.22;4999284;28;20065;-58
2022/05/15 10:33:22;;;;;;;6.60;2.80;;;;;;;23.98;42.64;99002.38;4999666;28;20053;-57
2022/05/15 10:36:17;;;;;;;4.18;3.33;;;;;;;23.81;42.87;99003.53;5001025;28;20480;-56
2022/05/15 10:38:48;;;;;;;6.93;3.20;;;;;;;23.84;42.35;98994.63;4987970;28;20069;-58
2022/05/15 10:41:31;;;;;;;4.72;3.33;;;;;;;23.60;43.41;98999.72;4998171;28;20038;-59
2022/05/15 10:44:29;;;;;;;5.30;3.80;;;;;;;23.66;42.93;98996.69;4999841;28;20069;-54
2022/05/15 10:47:05;;;;;;;5.07;2.88;;;;;;;23.96;43.00;98986.78;4990591;28;20042;-60
2022/05/15 10:49:39;;;;;;;3.40;3.10;;;;;;;23.87;42.77;98991.81;4998145;28;20441;-57
2022/05/15 10:52:10;;;;;;;3.45;3.00;;;;;;;23.91;42.77;98975.78;4999111;28;20045;-62
2022/05/15 10:58:05;;;;;;;;;;;;;;;23.98;42.40;98982.28;4999279;28;20041;-62
2022/05/15 11:00:42;;;;;;;6.05;3.00;;;;;;;24.15;42.58;98989.00;4921733;29;19918;-63
2022/05/15 11:03:16;;;;;;;3.30;2.60;;;;;;;24.02;42.35;98975.88;4924814;29;20095;-62
2022/05/15 11:06:12;;;;;;;2.90;2.60;;;;;;;24.39;42.50;98973.38;4908697;29;20043;-62
2022/05/15 11:08:52;;;;;;;4.72;3.00;;;;;;;24.43;43.23;98977.47;4920463;29;20040;-62
2022/05/15 11:11:36;;;;;;;3.70;3.35;;;;;;;24.30;41.65;98974.88;4923091;29;20087;-63
2022/05/15 11:14:30;;;;;;;6.65;3.95;;;;;;;24.45;41.36;98970.31;4923681;29;20035;-63
2022/05/15 11:17:01;;;;;;;6.15;3.05;;;;;;;24.18;41.67;98965.25;4919348;29;20143;-63
2022/05/15 11:19:37;;;;;;;4.50;3.20;;;;;;;24.19;40.73;98966.88;4924848;29;20130;-63
2022/05/15 11:22:26;;;;;;;5.35;2.97;;;;;;;24.32;40.68;98962.47;4912164;29;20031;-63
2022/05/15 11:25:09;;;;;;;3.47;2.40;;;;;;;24.25;43.05;98960.41;4927107;29;20565;-62
2022/05/15 11:27:47;;;;;;;5.18;3.35;;;;;;;24.57;41.63;98959.81;4923471;29;20521;-62
2022/05/15 11:30:22;;;;;;;5.25;3.65;;;;;;;24.69;41.37;98958.13;4925502;29;20044;-63
2022/05/15 11:32:47;;;;;;;5.70;3.50;;;;;;;24.80;41.02;98959.97;4928224;29;20055;-63
2022/05/15 11:35:18;;;;;;;4.90;2.70;;;;;;;24.85;40.62;98953.47;4926237;29;20110;-62
2022/05/15 11:37:57;;;;;;;4.10;2.92;;;;;;;24.88;39.96;98952.41;4965426;28;20088;-61
2022/05/15 11:40:38;;;;;;;5.57;2.70;;;;;;;24.47;39.83;98944.84;5005108;28;20577;-64
2022/05/15 11:43:31;;;;;;;4.40;2.90;;;;;;;24.64;41.04;98938.41;5004513;28;20067;-62
2022/05/15 11:46:06;;;;;;;3.35;2.50;;;;;;;24.95;40.18;98937.91;5001016;28;20038;-61
2022/05/15 11:48:31;;;;;;;;;;;;;;;24.90;40.64;98943.50;5003080;28;20488;-62
2022/05/15 11:51:03;;;;;;;3.30;2.95;;;;;;;25.04;40.53;98939.03;5004915;28;19921;-63
2022/05/15 11:53:47;;;;;;;4.88;2.70;;;;;;;24.78;40.55;98935.66;4987540;28;20506;-61
2022/05/15 11:56:24;;;;;;;5.57;3.47;;;;;;;24.76;39.52;98927.88;4999758;28;20951;-64
2022/05/15 11:59:02;;;;;;;4.88;2.60;;;;;;;24.98;39.72;98921.94;5004100;28;20037;-63
2022/05/15 12:01:35;;;;;;;3.00;2.75;;;;;;;25.07;39.00;98921.28;5002850;28;20104;-64